sensor_id;sensor_type;location;lat;lon;timestamp;pressure;altitude;pressure_sealevel;temperature;humidity
7730;BME280;3908;52.310;7.230;2023-02-26T00:02:34;51332.84;;;-145.83;94.30
7730;BME280;3908;52.310;7.230;2023-02-26T00:05:21;51348.50;;;-145.83;94.20
7730;BME280;3908;52.310;7.230;2023-02-26T00:08:09;51325.03;;;-145.83;94.31
7730;BME280;3908;52.310;7.230;2023-02-26T00:10:57;51325.03;;;-145.83;94.07
7730;BME280;3908;52.310;7.230;2023-02-26T00:13:47;51366.09;;;-145.83;93.54
7730;BME280;3908;52.310;7.230;2023-02-26T00:16:35;51350.47;;;-145.83;93.09
7730;BME280;3908;52.310;7.230;2023-02-26T00:19:22;51321.09;;;-145.83;93.47
7730;BME280;3908;52.310;7.230;2023-02-26T00:22:09;51344.59;;;-145.83;94.09
7730;BME280;3908;52.310;7.230;2023-02-26T00:24:58;51344.59;;;-145.83;94.57
7730;BME280;3908;52.310;7.230;2023-02-26T00:27:45;51370.03;;;-145.83;95.36
7730;BME280;3908;52.310;7.230;2023-02-26T00:30:33;51328.94;;;-145.83;96.03
7730;BME280;3908;52.310;7.230;2023-02-26T00:33:21;51325.03;;;-145.83;95.96
7730;BME280;3908;52.310;7.230;2023-02-26T00:36:18;51323.06;;;-145.83;95.86
7730;BME280;3908;52.310;7.230;2023-02-26T00:42:14;51315.25;;;-145.83;97.14
7730;BME280;3908;52.310;7.230;2023-02-26T00:45:02;51360.22;;;-145.83;97.03
7730;BME280;3908;52.310;7.230;2023-02-26T00:47:53;51336.75;;;-145.83;97.11
7730;BME280;3908;52.310;7.230;2023-02-26T00:50:47;51315.25;;;-145.83;96.77
7730;BME280;3908;52.310;7.230;2023-02-26T00:53:45;51321.09;;;-145.83;96.60
7730;BME280;3908;52.310;7.230;2023-02-26T00:56:32;51319.16;;;-145.83;96.49
7730;BME280;3908;52.310;7.230;2023-02-26T00:59:21;51342.63;;;-145.83;96.49
7730;BME280;3908;52.310;7.230;2023-02-26T01:02:09;51323.06;;;-145.83;95.86
7730;BME280;3908;52.310;7.230;2023-02-26T01:04:56;51328.94;;;-145.83;95.27
7730;BME280;3908;52.310;7.230;2023-02-26T01:07:47;51313.28;;;-145.83;94.89
7730;BME280;3908;52.310;7.230;2023-02-26T01:10:39;51328.94;;;-145.83;95.43
7730;BME280;3908;52.310;7.230;2023-02-26T01:13:27;51348.50;;;-145.83;95.27
7730;BME280;3908;52.310;7.230;2023-02-26T01:16:20;51317.19;;;-145.83;96.35
7730;BME280;3908;52.310;7.230;2023-02-26T01:19:13;51291.75;;;-145.83;96.75
7730;BME280;3908;52.310;7.230;2023-02-26T01:22:07;51325.03;;;-145.83;96.89
7730;BME280;3908;52.310;7.230;2023-02-26T01:25:01;51315.25;;;-145.83;96.88
7730;BME280;3908;52.310;7.230;2023-02-26T01:27:50;51301.53;;;-145.83;96.18
7730;BME280;3908;52.310;7.230;2023-02-26T01:30:38;51352.41;;;-145.83;95.89
7730;BME280;3908;52.310;7.230;2023-02-26T01:33:29;51309.38;;;-145.83;96.35
7730;BME280;3908;52.310;7.230;2023-02-26T01:36:20;51317.19;;;-145.83;96.45
7730;BME280;3908;52.310;7.230;2023-02-26T01:39:14;51250.69;;;-145.83;97.00
7730;BME280;3908;52.310;7.230;2023-02-26T01:42:11;51305.47;;;-145.83;97.29
7730;BME280;3908;52.310;7.230;2023-02-26T01:45:02;51326.97;;;-145.83;97.34
7730;BME280;3908;52.310;7.230;2023-02-26T01:47:57;51334.81;;;-145.83;97.25
7730;BME280;3908;52.310;7.230;2023-02-26T01:50:47;51338.72;;;-145.83;97.04
7730;BME280;3908;52.310;7.230;2023-02-26T01:53:34;51332.84;;;-145.83;97.03
7730;BME280;3908;52.310;7.230;2023-02-26T01:56:21;51319.16;;;-145.83;96.91
7730;BME280;3908;52.310;7.230;2023-02-26T01:59:10;51330.91;;;-145.83;96.98
7730;BME280;3908;52.310;7.230;2023-02-26T02:02:03;51299.59;;;-145.83;96.51
7730;BME280;3908;52.310;7.230;2023-02-26T02:04:51;51325.03;;;-145.83;96.55
7730;BME280;3908;52.310;7.230;2023-02-26T02:07:40;51336.75;;;-145.83;96.18
7730;BME280;3908;52.310;7.230;2023-02-26T02:10:27;51346.53;;;-145.83;95.19
7730;BME280;3908;52.310;7.230;2023-02-26T02:13:23;51299.59;;;-145.83;94.70
7730;BME280;3908;52.310;7.230;2023-02-26T02:16:19;51323.06;;;-145.83;94.79
7730;BME280;3908;52.310;7.230;2023-02-26T02:19:26;51299.59;;;-145.83;94.64
7730;BME280;3908;52.310;7.230;2023-02-26T02:22:34;51319.16;;;-145.83;93.98
7730;BME280;3908;52.310;7.230;2023-02-26T02:25:57;51321.09;;;-145.83;93.70
7730;BME280;3908;52.310;7.230;2023-02-26T02:29:03;51311.31;;;-145.83;93.12
7730;BME280;3908;52.310;7.230;2023-02-26T02:32:03;51305.47;;;-145.83;92.15
7730;BME280;3908;52.310;7.230;2023-02-26T02:34:56;51332.84;;;-145.83;91.34
7730;BME280;3908;52.310;7.230;2023-02-26T02:37:47;51311.31;;;-145.83;91.02
7730;BME280;3908;52.310;7.230;2023-02-26T02:40:39;51332.84;;;-145.83;90.66
7730;BME280;3908;52.310;7.230;2023-02-26T02:43:32;51323.06;;;-145.83;90.23
7730;BME280;3908;52.310;7.230;2023-02-26T02:46:23;51301.53;;;-145.83;89.51
7730;BME280;3908;52.310;7.230;2023-02-26T02:49:15;51293.72;;;-145.83;89.36
7730;BME280;3908;52.310;7.230;2023-02-26T02:52:13;51295.69;;;-145.83;89.51
7730;BME280;3908;52.310;7.230;2023-02-26T02:55:04;51336.75;;;-145.83;88.74
7730;BME280;3908;52.310;7.230;2023-02-26T02:57:57;51340.69;;;-145.83;88.71
7730;BME280;3908;52.310;7.230;2023-02-26T03:00:47;51283.94;;;-145.83;88.60
7730;BME280;3908;52.310;7.230;2023-02-26T03:03:42;51313.28;;;-145.83;88.83
7730;BME280;3908;52.310;7.230;2023-02-26T03:06:32;51309.38;;;-145.83;89.61
7730;BME280;3908;52.310;7.230;2023-02-26T03:09:19;51299.59;;;-145.83;89.52
7730;BME280;3908;52.310;7.230;2023-02-26T03:12:06;51332.84;;;-145.83;89.97
7730;BME280;3908;52.310;7.230;2023-02-26T03:14:53;51311.31;;;-145.83;90.32
7730;BME280;3908;52.310;7.230;2023-02-26T03:17:46;51305.47;;;-145.83;90.48
7730;BME280;3908;52.310;7.230;2023-02-26T03:20:46;51317.19;;;-145.83;90.83
7730;BME280;3908;52.310;7.230;2023-02-26T03:23:45;51295.69;;;-145.83;91.17
7730;BME280;3908;52.310;7.230;2023-02-26T03:26:41;51317.19;;;-145.83;90.88
7730;BME280;3908;52.310;7.230;2023-02-26T03:29:34;51321.09;;;-145.83;91.07
7730;BME280;3908;52.310;7.230;2023-02-26T03:32:27;51262.44;;;-145.83;91.43
7730;BME280;3908;52.310;7.230;2023-02-26T03:35:17;51325.03;;;-145.83;91.50
7730;BME280;3908;52.310;7.230;2023-02-26T03:38:12;51338.72;;;-145.83;92.06
7730;BME280;3908;52.310;7.230;2023-02-26T03:41:05;51293.72;;;-145.83;91.86
7730;BME280;3908;52.310;7.230;2023-02-26T03:43:56;51287.84;;;-145.83;92.09
7730;BME280;3908;52.310;7.230;2023-02-26T03:46:47;51280.03;;;-145.83;92.12
7730;BME280;3908;52.310;7.230;2023-02-26T03:49:39;51268.28;;;-145.83;91.88
7730;BME280;3908;52.310;7.230;2023-02-26T03:52:29;51309.38;;;-145.83;91.84
7730;BME280;3908;52.310;7.230;2023-02-26T03:55:23;51299.59;;;-145.83;91.90
7730;BME280;3908;52.310;7.230;2023-02-26T03:58:13;51299.59;;;-145.83;91.80
7730;BME280;3908;52.310;7.230;2023-02-26T04:01:03;51291.75;;;-145.83;91.64
7730;BME280;3908;52.310;7.230;2023-02-26T04:03:54;51309.38;;;-145.83;91.40
7730;BME280;3908;52.310;7.230;2023-02-26T04:06:43;51313.28;;;-145.83;91.18
7730;BME280;3908;52.310;7.230;2023-02-26T04:09:31;51299.59;;;-145.83;90.88
7730;BME280;3908;52.310;7.230;2023-02-26T04:12:20;51311.31;;;-145.83;90.82
7730;BME280;3908;52.310;7.230;2023-02-26T04:15:10;51280.03;;;-145.83;90.83
7730;BME280;3908;52.310;7.230;2023-02-26T04:17:57;51325.03;;;-145.83;90.72
7730;BME280;3908;52.310;7.230;2023-02-26T04:20:44;51350.47;;;-145.83;90.28
7730;BME280;3908;52.310;7.230;2023-02-26T04:23:31;51278.06;;;-145.83;90.05
7730;BME280;3908;52.310;7.230;2023-02-26T04:26:18;51299.59;;;-145.83;90.13
7730;BME280;3908;52.310;7.230;2023-02-26T04:29:05;51287.84;;;-145.83;89.85
7730;BME280;3908;52.310;7.230;2023-02-26T04:31:54;51276.13;;;-145.83;89.36
7730;BME280;3908;52.310;7.230;2023-02-26T04:34:41;51289.81;;;-145.83;89.08
7730;BME280;3908;52.310;7.230;2023-02-26T04:37:28;51289.81;;;-145.83;88.67
7730;BME280;3908;52.310;7.230;2023-02-26T04:40:15;51291.75;;;-145.83;88.87
7730;BME280;3908;52.310;7.230;2023-02-26T04:43:02;51326.97;;;-145.83;89.00
7730;BME280;3908;52.310;7.230;2023-02-26T04:45:49;51285.91;;;-145.83;88.90
7730;BME280;3908;52.310;7.230;2023-02-26T04:48:38;51293.72;;;-145.83;88.80
7730;BME280;3908;52.310;7.230;2023-02-26T04:51:25;51323.06;;;-145.83;88.64
7730;BME280;3908;52.310;7.230;2023-02-26T04:54:12;51276.13;;;-145.83;88.34
7730;BME280;3908;52.310;7.230;2023-02-26T04:56:59;51321.09;;;-145.83;87.88
7730;BME280;3908;52.310;7.230;2023-02-26T04:59:46;51319.16;;;-145.83;87.49
7730;BME280;3908;52.310;7.230;2023-02-26T05:02:33;51291.75;;;-145.83;87.54
7730;BME280;3908;52.310;7.230;2023-02-26T05:05:21;51315.25;;;-145.83;87.31
7730;BME280;3908;52.310;7.230;2023-02-26T05:08:09;51319.16;;;-145.83;87.59
7730;BME280;3908;52.310;7.230;2023-02-26T05:10:56;51293.72;;;-145.83;87.21
7730;BME280;3908;52.310;7.230;2023-02-26T05:13:43;51287.84;;;-145.83;87.25
7730;BME280;3908;52.310;7.230;2023-02-26T05:16:30;51270.25;;;-145.83;87.40
7730;BME280;3908;52.310;7.230;2023-02-26T05:19:17;51297.63;;;-145.83;87.82
7730;BME280;3908;52.310;7.230;2023-02-26T05:22:06;51307.41;;;-145.83;88.27
7730;BME280;3908;52.310;7.230;2023-02-26T05:24:52;51283.94;;;-145.83;88.47
7730;BME280;3908;52.310;7.230;2023-02-26T05:27:40;51291.75;;;-145.83;88.51
7730;BME280;3908;52.310;7.230;2023-02-26T05:30:28;51278.06;;;-145.83;88.30
7730;BME280;3908;52.310;7.230;2023-02-26T05:33:15;51326.97;;;-145.83;88.34
7730;BME280;3908;52.310;7.230;2023-02-26T05:36:03;51301.53;;;-145.83;88.60
7730;BME280;3908;52.310;7.230;2023-02-26T05:38:53;51291.75;;;-145.83;88.99
7730;BME280;3908;52.310;7.230;2023-02-26T05:41:40;51278.06;;;-145.83;89.40
7730;BME280;3908;52.310;7.230;2023-02-26T05:44:27;51325.03;;;-145.83;89.76
7730;BME280;3908;52.310;7.230;2023-02-26T05:47:14;51276.13;;;-145.83;90.08
7730;BME280;3908;52.310;7.230;2023-02-26T05:50:01;51285.91;;;-145.83;90.45
7730;BME280;3908;52.310;7.230;2023-02-26T05:52:48;51270.25;;;-145.83;90.54
7730;BME280;3908;52.310;7.230;2023-02-26T05:55:36;51270.25;;;-145.83;91.02
7730;BME280;3908;52.310;7.230;2023-02-26T05:58:23;51307.41;;;-145.83;91.35
7730;BME280;3908;52.310;7.230;2023-02-26T06:01:10;51285.91;;;-145.83;91.64
7730;BME280;3908;52.310;7.230;2023-02-26T06:03:57;51264.38;;;-145.83;91.96
7730;BME280;3908;52.310;7.230;2023-02-26T06:06:44;51291.75;;;-145.83;91.99
7730;BME280;3908;52.310;7.230;2023-02-26T06:09:31;51326.97;;;-145.83;92.09
7730;BME280;3908;52.310;7.230;2023-02-26T06:12:20;51280.03;;;-145.83;92.46
7730;BME280;3908;52.310;7.230;2023-02-26T06:15:08;51299.59;;;-145.83;92.93
7730;BME280;3908;52.310;7.230;2023-02-26T06:17:55;51281.97;;;-145.83;93.04
7730;BME280;3908;52.310;7.230;2023-02-26T06:20:42;51323.06;;;-145.83;93.76
7730;BME280;3908;52.310;7.230;2023-02-26T06:23:29;51293.72;;;-145.83;93.92
7730;BME280;3908;52.310;7.230;2023-02-26T06:26:16;51305.47;;;-145.83;93.84
7730;BME280;3908;52.310;7.230;2023-02-26T06:29:05;51285.91;;;-145.83;93.88
7730;BME280;3908;52.310;7.230;2023-02-26T06:31:52;51252.66;;;-145.83;93.80
7730;BME280;3908;52.310;7.230;2023-02-26T06:34:39;51313.28;;;-145.83;93.65
7730;BME280;3908;52.310;7.230;2023-02-26T06:37:26;51309.38;;;-145.83;93.82
7730;BME280;3908;52.310;7.230;2023-02-26T06:40:13;51293.72;;;-145.83;93.32
7730;BME280;3908;52.310;7.230;2023-02-26T06:43:00;51280.03;;;-145.83;93.47
7730;BME280;3908;52.310;7.230;2023-02-26T06:45:49;51301.53;;;-145.83;93.43
7730;BME280;3908;52.310;7.230;2023-02-26T06:48:36;51252.66;;;-145.83;93.02
7730;BME280;3908;52.310;7.230;2023-02-26T06:51:23;51278.06;;;-145.83;93.13
7730;BME280;3908;52.310;7.230;2023-02-26T06:54:10;51299.59;;;-145.83;93.25
7730;BME280;3908;52.310;7.230;2023-02-26T06:56:57;51325.03;;;-145.83;93.17
7730;BME280;3908;52.310;7.230;2023-02-26T06:59:45;51317.19;;;-145.83;93.22
7730;BME280;3908;52.310;7.230;2023-02-26T07:02:33;51301.53;;;-145.83;93.30
7730;BME280;3908;52.310;7.230;2023-02-26T07:05:20;51280.03;;;-145.83;93.07
7730;BME280;3908;52.310;7.230;2023-02-26T07:08:07;51268.28;;;-145.83;92.97
7730;BME280;3908;52.310;7.230;2023-02-26T07:10:54;51256.56;;;-145.83;92.80
7730;BME280;3908;52.310;7.230;2023-02-26T07:13:41;51305.47;;;-145.83;92.50
7730;BME280;3908;52.310;7.230;2023-02-26T07:16:28;51295.69;;;-145.83;92.06
7730;BME280;3908;52.310;7.230;2023-02-26T07:19:17;51293.72;;;-145.83;91.69
7730;BME280;3908;52.310;7.230;2023-02-26T07:22:03;51301.53;;;-145.83;91.85
7730;BME280;3908;52.310;7.230;2023-02-26T07:24:50;51323.06;;;-145.83;91.33
7730;BME280;3908;52.310;7.230;2023-02-26T07:27:38;51305.47;;;-145.83;90.48
7730;BME280;3908;52.310;7.230;2023-02-26T07:30:25;51311.31;;;-145.83;89.78
7730;BME280;3908;52.310;7.230;2023-02-26T07:33:12;51350.47;;;-145.83;89.48
7730;BME280;3908;52.310;7.230;2023-02-26T07:36:00;51293.72;;;-145.83;88.84
7730;BME280;3908;52.310;7.230;2023-02-26T07:38:47;51293.72;;;-145.83;88.87
7730;BME280;3908;52.310;7.230;2023-02-26T07:41:34;51295.69;;;-145.83;87.96
7730;BME280;3908;52.310;7.230;2023-02-26T07:44:21;51295.69;;;-145.83;87.70
7730;BME280;3908;52.310;7.230;2023-02-26T07:47:09;51305.47;;;-145.83;87.09
7730;BME280;3908;52.310;7.230;2023-02-26T07:49:56;51278.06;;;-145.83;86.10
7730;BME280;3908;52.310;7.230;2023-02-26T07:52:45;51313.28;;;-145.83;84.19
7730;BME280;3908;52.310;7.230;2023-02-26T07:55:32;51328.94;;;-145.83;83.52
7730;BME280;3908;52.310;7.230;2023-02-26T07:58:19;51307.41;;;-145.83;81.14
7730;BME280;3908;52.310;7.230;2023-02-26T08:01:06;51332.84;;;-145.83;80.54
7730;BME280;3908;52.310;7.230;2023-02-26T08:03:53;51330.91;;;-145.83;78.28
7730;BME280;3908;52.310;7.230;2023-02-26T08:06:40;51354.38;;;-145.83;76.94
7730;BME280;3908;52.310;7.230;2023-02-26T08:09:28;51285.91;;;-145.83;76.04
7730;BME280;3908;52.310;7.230;2023-02-26T08:12:16;51338.72;;;-145.83;75.72
7730;BME280;3908;52.310;7.230;2023-02-26T08:15:04;51340.69;;;-145.83;72.44
7730;BME280;3908;52.310;7.230;2023-02-26T08:17:51;51330.91;;;-145.83;72.32
7730;BME280;3908;52.310;7.230;2023-02-26T08:20:38;51379.81;;;-145.83;70.42
7730;BME280;3908;52.310;7.230;2023-02-26T08:23:25;51350.47;;;-145.83;69.06
7730;BME280;3908;52.310;7.230;2023-02-26T08:26:13;51332.84;;;-145.83;68.59
7730;BME280;3908;52.310;7.230;2023-02-26T08:29:01;51346.53;;;-145.83;70.10
7730;BME280;3908;52.310;7.230;2023-02-26T08:31:48;51323.06;;;-145.83;66.62
7730;BME280;3908;52.310;7.230;2023-02-26T08:34:35;51370.03;;;-145.83;64.80
7730;BME280;3908;52.310;7.230;2023-02-26T08:37:22;51348.50;;;-145.83;67.42
7730;BME280;3908;52.310;7.230;2023-02-26T08:40:10;51362.19;;;-145.83;63.89
7730;BME280;3908;52.310;7.230;2023-02-26T08:42:58;51344.59;;;-145.83;63.65
7730;BME280;3908;52.310;7.230;2023-02-26T08:45:46;51340.69;;;-145.83;62.01
7730;BME280;3908;52.310;7.230;2023-02-26T08:48:34;51366.09;;;-145.83;62.31
7730;BME280;3908;52.310;7.230;2023-02-26T08:51:21;51311.31;;;-145.83;61.39
7730;BME280;3908;52.310;7.230;2023-02-26T08:54:08;51323.06;;;-145.83;63.26
7730;BME280;3908;52.310;7.230;2023-02-26T08:56:55;51336.75;;;-145.83;60.14
7730;BME280;3908;52.310;7.230;2023-02-26T08:59:44;51356.31;;;-145.83;60.17
7730;BME280;3908;52.310;7.230;2023-02-26T09:02:31;51366.09;;;-145.83;58.65
7730;BME280;3908;52.310;7.230;2023-02-26T09:05:18;51323.06;;;-145.83;57.30
7730;BME280;3908;52.310;7.230;2023-02-26T09:08:05;51319.16;;;-145.83;58.11
7730;BME280;3908;52.310;7.230;2023-02-26T09:10:52;51381.75;;;-145.83;58.03
7730;BME280;3908;52.310;7.230;2023-02-26T09:13:40;51346.53;;;-145.83;57.10
7730;BME280;3908;52.310;7.230;2023-02-26T09:16:28;51352.41;;;-145.83;55.99
7730;BME280;3908;52.310;7.230;2023-02-26T09:19:16;51344.59;;;-145.83;55.25
7730;BME280;3908;52.310;7.230;2023-02-26T09:22:03;51375.88;;;-145.83;56.50
7730;BME280;3908;52.310;7.230;2023-02-26T09:24:50;51348.50;;;-145.83;57.17
7730;BME280;3908;52.310;7.230;2023-02-26T09:27:37;51407.19;;;-145.83;57.00
7730;BME280;3908;52.310;7.230;2023-02-26T09:30:24;51366.09;;;-145.83;55.57
7730;BME280;3908;52.310;7.230;2023-02-26T09:33:14;51334.81;;;-145.83;55.12
7730;BME280;3908;52.310;7.230;2023-02-26T09:36:02;51379.81;;;-145.83;55.42
7730;BME280;3908;52.310;7.230;2023-02-26T09:38:49;51338.72;;;-145.83;54.04
7730;BME280;3908;52.310;7.230;2023-02-26T09:41:38;51350.47;;;-145.83;55.03
7730;BME280;3908;52.310;7.230;2023-02-26T09:44:28;51373.94;;;-145.83;54.49
7730;BME280;3908;52.310;7.230;2023-02-26T09:47:19;51371.97;;;-145.83;51.77
7730;BME280;3908;52.310;7.230;2023-02-26T09:50:15;51360.22;;;-145.83;53.63
7730;BME280;3908;52.310;7.230;2023-02-26T09:53:09;51375.88;;;-145.83;52.03
7730;BME280;3908;52.310;7.230;2023-02-26T09:56:01;51383.72;;;-145.83;53.26
7730;BME280;3908;52.310;7.230;2023-02-26T09:58:49;51358.28;;;-145.83;53.14
7730;BME280;3908;52.310;7.230;2023-02-26T10:01:43;51352.41;;;-145.83;51.73
7730;BME280;3908;52.310;7.230;2023-02-26T10:04:47;51326.97;;;-145.83;50.33
7730;BME280;3908;52.310;7.230;2023-02-26T10:07:42;51307.41;;;-145.83;49.91
7730;BME280;3908;52.310;7.230;2023-02-26T10:10:37;51381.75;;;-145.83;49.49
7730;BME280;3908;52.310;7.230;2023-02-26T10:13:34;51344.59;;;-145.83;49.27
7730;BME280;3908;52.310;7.230;2023-02-26T10:16:25;51395.44;;;-145.83;47.67
7730;BME280;3908;52.310;7.230;2023-02-26T10:19:15;51354.38;;;-145.83;46.70
7730;BME280;3908;52.310;7.230;2023-02-26T10:22:12;51319.16;;;-145.83;46.97
7730;BME280;3908;52.310;7.230;2023-02-26T10:25:06;51338.72;;;-145.83;47.15
7730;BME280;3908;52.310;7.230;2023-02-26T10:27:58;51358.28;;;-145.83;46.78
7730;BME280;3908;52.310;7.230;2023-02-26T10:30:51;51360.22;;;-145.83;46.37
7730;BME280;3908;52.310;7.230;2023-02-26T10:33:46;51340.69;;;-145.83;47.49
7730;BME280;3908;52.310;7.230;2023-02-26T10:36:41;51375.88;;;-145.83;47.19
7730;BME280;3908;52.310;7.230;2023-02-26T10:39:38;51360.22;;;-145.83;45.98
7730;BME280;3908;52.310;7.230;2023-02-26T10:42:34;51381.75;;;-145.83;49.08
7730;BME280;3908;52.310;7.230;2023-02-26T10:45:29;51342.63;;;-145.83;48.48
7730;BME280;3908;52.310;7.230;2023-02-26T10:48:33;51370.03;;;-145.83;46.77
7730;BME280;3908;52.310;7.230;2023-02-26T10:51:28;51377.84;;;-145.83;46.05
7730;BME280;3908;52.310;7.230;2023-02-26T10:54:20;51397.41;;;-145.83;48.10
7730;BME280;3908;52.310;7.230;2023-02-26T10:57:14;51373.94;;;-145.83;46.58
7730;BME280;3908;52.310;7.230;2023-02-26T11:00:14;51387.63;;;-145.83;46.44
7730;BME280;3908;52.310;7.230;2023-02-26T11:03:04;51348.50;;;-145.83;48.34
7730;BME280;3908;52.310;7.230;2023-02-26T11:05:53;51350.47;;;-145.83;46.54
7730;BME280;3908;52.310;7.230;2023-02-26T11:08:42;51368.06;;;-145.83;46.75
7730;BME280;3908;52.310;7.230;2023-02-26T11:11:41;51358.28;;;-145.83;47.68
7730;BME280;3908;52.310;7.230;2023-02-26T11:14:30;51371.97;;;-145.83;49.38
7730;BME280;3908;52.310;7.230;2023-02-26T11:17:21;51364.16;;;-145.83;49.29
7730;BME280;3908;52.310;7.230;2023-02-26T11:20:16;51342.63;;;-145.83;49.50
7730;BME280;3908;52.310;7.230;2023-02-26T11:23:06;51375.88;;;-145.83;49.62
7730;BME280;3908;52.310;7.230;2023-02-26T11:26:00;51342.63;;;-145.83;48.44
7730;BME280;3908;52.310;7.230;2023-02-26T11:28:53;51342.63;;;-145.83;47.24
7730;BME280;3908;52.310;7.230;2023-02-26T11:31:40;51334.81;;;-145.83;49.46
7730;BME280;3908;52.310;7.230;2023-02-26T11:34:29;51344.59;;;-145.83;48.30
7730;BME280;3908;52.310;7.230;2023-02-26T11:37:19;51358.28;;;-145.83;49.07
7730;BME280;3908;52.310;7.230;2023-02-26T11:40:13;51366.09;;;-145.83;47.76
7730;BME280;3908;52.310;7.230;2023-02-26T11:43:04;51379.81;;;-145.83;49.02
7730;BME280;3908;52.310;7.230;2023-02-26T11:45:53;51375.88;;;-145.83;49.93
7730;BME280;3908;52.310;7.230;2023-02-26T11:48:44;51401.31;;;-145.83;49.52
7730;BME280;3908;52.310;7.230;2023-02-26T11:51:33;51373.94;;;-145.83;45.47
7730;BME280;3908;52.310;7.230;2023-02-26T11:54:22;51375.88;;;-145.83;46.95
7730;BME280;3908;52.310;7.230;2023-02-26T11:57:15;51381.75;;;-145.83;47.30
7730;BME280;3908;52.310;7.230;2023-02-26T12:00:16;51395.44;;;-145.83;47.25
7730;BME280;3908;52.310;7.230;2023-02-26T12:03:06;51360.22;;;-145.83;48.13
7730;BME280;3908;52.310;7.230;2023-02-26T12:05:56;51375.88;;;-145.83;47.54
7730;BME280;3908;52.310;7.230;2023-02-26T12:08:45;51346.53;;;-145.83;47.36
7730;BME280;3908;52.310;7.230;2023-02-26T12:12:00;51342.63;;;-145.83;49.00
7730;BME280;3908;52.310;7.230;2023-02-26T12:15:13;51360.22;;;-145.83;47.39
7730;BME280;3908;52.310;7.230;2023-02-26T12:18:31;51375.88;;;-145.83;47.42
7730;BME280;3908;52.310;7.230;2023-02-26T12:21:36;51334.81;;;-145.83;46.63
7730;BME280;3908;52.310;7.230;2023-02-26T12:24:38;51397.41;;;-145.83;46.05
7730;BME280;3908;52.310;7.230;2023-02-26T12:27:42;51362.19;;;-145.83;47.04
7730;BME280;3908;52.310;7.230;2023-02-26T12:30:46;51348.50;;;-145.83;47.09
7730;BME280;3908;52.310;7.230;2023-02-26T12:33:46;51340.69;;;-145.83;44.72
7730;BME280;3908;52.310;7.230;2023-02-26T12:36:47;51387.63;;;-145.83;44.02
7730;BME280;3908;52.310;7.230;2023-02-26T12:39:47;51366.09;;;-145.83;46.20
7730;BME280;3908;52.310;7.230;2023-02-26T12:42:46;51368.06;;;-145.83;47.14
7730;BME280;3908;52.310;7.230;2023-02-26T12:45:46;51352.41;;;-145.83;45.99
7730;BME280;3908;52.310;7.230;2023-02-26T12:49:02;51383.72;;;-145.83;45.56
7730;BME280;3908;52.310;7.230;2023-02-26T12:52:05;51393.50;;;-145.83;44.66
7730;BME280;3908;52.310;7.230;2023-02-26T12:55:18;51342.63;;;-145.83;45.80
7730;BME280;3908;52.310;7.230;2023-02-26T12:58:12;51379.81;;;-145.83;45.04
7730;BME280;3908;52.310;7.230;2023-02-26T13:01:14;51371.97;;;-145.83;45.72
7730;BME280;3908;52.310;7.230;2023-02-26T13:04:37;51362.19;;;-145.83;42.96
7730;BME280;3908;52.310;7.230;2023-02-26T13:08:00;51352.41;;;-145.83;43.39
7730;BME280;3908;52.310;7.230;2023-02-26T13:11:02;51364.16;;;-145.83;41.74
7730;BME280;3908;52.310;7.230;2023-02-26T13:14:01;51391.53;;;-145.83;44.21
7730;BME280;3908;52.310;7.230;2023-02-26T13:16:54;51342.63;;;-145.83;43.50
7730;BME280;3908;52.310;7.230;2023-02-26T13:19:47;51362.19;;;-145.83;45.56
7730;BME280;3908;52.310;7.230;2023-02-26T13:22:40;51364.16;;;-145.83;42.60
7730;BME280;3908;52.310;7.230;2023-02-26T13:25:34;51371.97;;;-145.83;43.35
7730;BME280;3908;52.310;7.230;2023-02-26T13:28:34;51377.84;;;-145.83;44.78
7730;BME280;3908;52.310;7.230;2023-02-26T13:31:27;51332.84;;;-145.83;43.67
7730;BME280;3908;52.310;7.230;2023-02-26T13:34:17;51356.31;;;-145.83;44.12
7730;BME280;3908;52.310;7.230;2023-02-26T13:37:22;51362.19;;;-145.83;43.93
7730;BME280;3908;52.310;7.230;2023-02-26T13:43:41;51346.53;;;-145.83;45.73
7730;BME280;3908;52.310;7.230;2023-02-26T13:46:44;51371.97;;;-145.83;46.88
7730;BME280;3908;52.310;7.230;2023-02-26T13:49:41;51348.50;;;-145.83;45.14
7730;BME280;3908;52.310;7.230;2023-02-26T13:52:35;51354.38;;;-145.83;45.50
7730;BME280;3908;52.310;7.230;2023-02-26T13:55:39;51348.50;;;-145.83;47.14
7730;BME280;3908;52.310;7.230;2023-02-26T13:58:29;51405.22;;;-145.83;47.28
7730;BME280;3908;52.310;7.230;2023-02-26T14:01:28;51356.31;;;-145.83;47.88
7730;BME280;3908;52.310;7.230;2023-02-26T14:04:25;51387.63;;;-145.83;46.31
7730;BME280;3908;52.310;7.230;2023-02-26T14:07:14;51360.22;;;-145.83;45.59
7730;BME280;3908;52.310;7.230;2023-02-26T14:10:03;51387.63;;;-145.83;47.21
7730;BME280;3908;52.310;7.230;2023-02-26T14:13:06;51338.72;;;-145.83;46.26
7730;BME280;3908;52.310;7.230;2023-02-26T14:15:59;51373.94;;;-145.83;48.35
7730;BME280;3908;52.310;7.230;2023-02-26T14:18:51;51371.97;;;-145.83;45.88
7730;BME280;3908;52.310;7.230;2023-02-26T14:21:48;51383.72;;;-145.83;46.10
7730;BME280;3908;52.310;7.230;2023-02-26T14:24:36;51397.41;;;-145.83;47.26
7730;BME280;3908;52.310;7.230;2023-02-26T14:27:31;51377.84;;;-145.83;46.79
7730;BME280;3908;52.310;7.230;2023-02-26T14:30:26;51383.72;;;-145.83;46.48
7730;BME280;3908;52.310;7.230;2023-02-26T14:33:16;51362.19;;;-145.83;46.09
7730;BME280;3908;52.310;7.230;2023-02-26T14:36:13;51354.38;;;-145.83;47.12
7730;BME280;3908;52.310;7.230;2023-02-26T14:39:02;51344.59;;;-145.83;45.31
7730;BME280;3908;52.310;7.230;2023-02-26T14:41:55;51370.03;;;-145.83;47.49
7730;BME280;3908;52.310;7.230;2023-02-26T14:44:47;51354.38;;;-145.83;49.67
7730;BME280;3908;52.310;7.230;2023-02-26T14:47:35;51375.88;;;-145.83;47.30
7730;BME280;3908;52.310;7.230;2023-02-26T14:50:23;51350.47;;;-145.83;45.69
7730;BME280;3908;52.310;7.230;2023-02-26T14:56:51;51356.31;;;-145.83;48.12
7730;BME280;3908;52.310;7.230;2023-02-26T15:00:10;51395.44;;;-145.83;47.82
7730;BME280;3908;52.310;7.230;2023-02-26T15:03:19;51381.75;;;-145.83;48.51
7730;BME280;3908;52.310;7.230;2023-02-26T15:06:23;51352.41;;;-145.83;48.54
7730;BME280;3908;52.310;7.230;2023-02-26T15:09:17;51352.41;;;-145.83;47.54
7730;BME280;3908;52.310;7.230;2023-02-26T15:12:18;51328.94;;;-145.83;45.90
7730;BME280;3908;52.310;7.230;2023-02-26T15:15:26;51350.47;;;-145.83;46.57
7730;BME280;3908;52.310;7.230;2023-02-26T15:18:30;51342.63;;;-145.83;47.24
7730;BME280;3908;52.310;7.230;2023-02-26T15:21:29;51352.41;;;-145.83;47.62